createdAt,value
2017-05-28T00:00:23.392Z,22.78
2017-05-28T00:01:11.134Z,20.92
2017-05-28T00:01:59.367Z,49.39
2017-05-28T00:02:48.388Z,23.11
2017-05-28T00:03:42.359Z,20.81
2017-05-28T00:04:36.316Z,19.84
2017-05-28T00:05:25.282Z,19.20
2017-05-28T00:06:13.361Z,18.77
2017-05-28T00:07:01.392Z,18.47
2017-05-28T00:08:07.405Z,18.12
2017-05-28T00:09:07.497Z,17.83
2017-05-28T00:10:07.482Z,17.62
2017-05-28T00:11:07.514Z,17.46
2017-05-28T00:12:01.535Z,17.44
2017-05-28T00:13:01.547Z,17.48
2017-05-28T00:13:56.630Z,17.47
2017-05-28T00:14:51.770Z,17.40
2017-05-28T00:15:52.674Z,16.84
2017-05-28T00:16:47.709Z,16.43
2017-05-28T00:17:35.772Z,16.56
2017-05-28T00:18:30.817Z,16.65
2017-05-28T00:19:25.869Z,16.66
2017-05-28T00:20:25.898Z,16.73
2017-05-28T00:21:31.925Z,16.78
2017-05-28T00:22:21.008Z,16.59
2017-05-28T00:23:14.995Z,16.47
2017-05-28T00:24:15.379Z,16.52
2017-05-28T00:25:10.106Z,16.64
2017-05-28T00:26:10.160Z,16.74
2017-05-28T00:27:10.195Z,16.77
2017-05-28T00:28:10.199Z,16.81
2017-05-28T00:29:04.318Z,16.83
2017-05-28T00:30:05.284Z,16.82
2017-05-28T00:31:05.313Z,16.76
2017-05-28T00:32:00.461Z,16.68
2017-05-28T00:32:55.421Z,16.62
2017-05-28T00:34:01.460Z,16.42
2017-05-28T00:34:55.494Z,16.34
2017-05-28T00:35:56.530Z,16.54
2017-05-28T00:36:56.547Z,16.56
2017-05-28T00:37:56.623Z,16.58
2017-05-28T00:38:56.654Z,16.58
2017-05-28T00:39:56.696Z,16.58
2017-05-28T00:40:56.705Z,16.56
2017-05-28T00:41:56.752Z,16.48
2017-05-28T00:42:56.797Z,16.45
2017-05-28T00:43:56.873Z,16.44
2017-05-28T00:44:57.892Z,16.42
2017-05-28T00:45:52.914Z,16.38
2017-05-28T00:46:52.889Z,16.34
2017-05-28T00:47:46.920Z,16.33
2017-05-28T00:48:47.983Z,16.31
2017-05-28T00:49:48.099Z,16.34
2017-05-28T00:50:43.067Z,16.32
2017-05-28T00:51:43.095Z,16.34
2017-05-28T00:52:43.108Z,16.33
2017-05-28T00:53:43.197Z,16.33
2017-05-28T00:54:37.195Z,16.31
2017-05-28T00:55:37.292Z,16.30
2017-05-28T00:56:32.581Z,16.26
2017-05-28T00:57:27.300Z,16.22
2017-05-28T00:58:27.367Z,16.18
2017-05-28T00:59:22.404Z,16.10
2017-05-28T01:00:22.456Z,16.04
2017-05-28T01:01:23.519Z,15.94
2017-05-28T01:02:17.534Z,15.86
2017-05-28T01:03:17.546Z,15.78
2017-05-28T01:04:12.630Z,15.74
2017-05-28T01:05:07.668Z,15.66
2017-05-28T01:06:08.587Z,15.60
2017-05-28T01:07:03.754Z,15.52
2017-05-28T01:07:58.690Z,15.43
2017-05-28T01:08:59.726Z,15.35
2017-05-28T01:09:59.851Z,15.28
2017-05-28T01:10:54.821Z,15.24
2017-05-28T01:11:54.863Z,15.23
2017-05-28T01:12:48.918Z,15.18
2017-05-28T01:13:48.924Z,15.16
2017-05-28T01:14:43.968Z,15.14
2017-05-28T01:15:39.001Z,15.12
2017-05-28T01:16:39.063Z,15.16
2017-05-28T01:17:34.079Z,15.16
2017-05-28T01:18:29.122Z,15.18
2017-05-28T01:19:30.183Z,15.18
2017-05-28T01:20:30.458Z,15.17
2017-05-28T01:21:25.220Z,15.17
2017-05-28T01:22:25.293Z,15.17
2017-05-28T01:23:19.333Z,15.15
2017-05-28T01:24:19.633Z,15.13
2017-05-28T01:25:14.414Z,15.10
2017-05-28T01:26:09.478Z,15.16
2017-05-28T01:27:09.503Z,15.14
2017-05-28T01:28:04.521Z,15.14
2017-05-28T01:28:59.695Z,15.15
2017-05-28T01:30:00.585Z,15.12
2017-05-28T01:31:00.646Z,15.08
2017-05-28T01:31:55.700Z,15.04
2017-05-28T01:32:55.705Z,15.03
2017-05-28T01:33:49.778Z,14.97
2017-05-28T01:34:49.795Z,14.92
2017-05-28T01:35:44.841Z,14.87
2017-05-28T01:36:39.900Z,14.82
2017-05-28T01:37:39.917Z,14.81
2017-05-28T01:38:34.984Z,14.81
2017-05-28T01:39:30.004Z,14.84
2017-05-28T01:40:30.075Z,14.83
2017-05-28T01:41:25.139Z,14.86
2017-05-28T01:42:20.105Z,14.92
2017-05-28T01:43:15.129Z,15.03
2017-05-28T01:44:09.214Z,15.09
2017-05-28T01:44:57.217Z,15.16
2017-05-28T01:45:45.265Z,15.22
2017-05-28T01:46:33.334Z,15.17
2017-05-28T01:47:21.443Z,15.14
2017-05-28T01:48:10.476Z,15.12
2017-05-28T01:49:05.475Z,14.96
2017-05-28T01:50:05.486Z,14.96
2017-05-28T01:50:53.536Z,14.89
2017-05-28T01:51:47.601Z,14.94
2017-05-28T01:52:41.606Z,14.97
2017-05-28T01:53:36.697Z,14.95
2017-05-28T01:54:30.710Z,14.98
2017-05-28T01:55:25.766Z,14.84
2017-05-28T01:56:20.776Z,14.80
2017-05-28T01:57:14.906Z,14.82
2017-05-28T01:58:08.879Z,14.79
2017-05-28T01:59:02.903Z,14.74
2017-05-28T01:59:50.994Z,14.73
2017-05-28T02:00:40.016Z,14.73
2017-05-28T02:01:28.079Z,14.71
2017-05-28T02:02:16.114Z,14.70
2017-05-28T02:03:05.094Z,14.70
2017-05-28T02:03:53.197Z,14.67
2017-05-28T02:04:41.216Z,14.70
2017-05-28T02:05:30.301Z,14.64
2017-05-28T02:06:18.363Z,14.62
2017-05-28T02:07:12.397Z,14.62
2017-05-28T02:08:06.434Z,14.60
2017-05-28T02:09:00.558Z,14.62
2017-05-28T02:09:55.503Z,14.62
2017-05-28T02:10:49.545Z,14.57
2017-05-28T02:11:44.601Z,14.54
2017-05-28T02:12:44.616Z,14.51
2017-05-28T02:13:39.721Z,14.49
2017-05-28T02:14:34.718Z,14.46
2017-05-28T02:15:28.767Z,14.45
2017-05-28T02:16:22.776Z,14.45
2017-05-28T02:17:17.817Z,14.44
2017-05-28T02:18:17.836Z,14.41
2017-05-28T02:19:12.911Z,14.43
2017-05-28T02:20:07.990Z,14.42
2017-05-28T02:20:56.996Z,14.38
2017-05-28T02:21:45.995Z,14.38
2017-05-28T02:22:34.065Z,14.37
2017-05-28T02:23:22.174Z,14.38
2017-05-28T02:24:10.161Z,14.38
2017-05-28T02:24:59.227Z,14.36
2017-05-28T02:25:53.250Z,14.34
2017-05-28T02:26:53.294Z,14.32
2017-05-28T02:27:48.335Z,14.33
2017-05-28T02:28:48.385Z,14.42
2017-05-28T02:29:42.395Z,14.44
2017-05-28T02:30:42.519Z,14.44
2017-05-28T02:31:37.486Z,14.42
2017-05-28T02:32:31.506Z,14.36
2017-05-28T02:33:26.555Z,14.32
2017-05-28T02:34:20.868Z,14.31
2017-05-28T02:35:15.645Z,14.36
2017-05-28T02:36:15.699Z,14.36
2017-05-28T02:37:10.687Z,14.31
2017-05-28T02:38:05.770Z,14.29
2017-05-28T02:39:05.801Z,14.24
2017-05-28T02:40:00.815Z,14.23
2017-05-28T02:40:55.962Z,14.26
2017-05-28T02:41:44.919Z,14.32
2017-05-28T02:42:39.965Z,14.44
2017-05-28T02:43:35.209Z,14.52
2017-05-28T02:44:29.307Z,14.53
2017-05-28T02:45:23.097Z,14.54
2017-05-28T02:46:18.101Z,14.48
2017-05-28T02:47:12.199Z,14.42
2017-05-28T02:48:12.213Z,14.38
2017-05-28T02:49:06.223Z,14.34
2017-05-28T02:50:00.290Z,14.32
2017-05-28T02:50:54.296Z,14.31
2017-05-28T02:51:49.389Z,14.33
2017-05-28T02:52:49.665Z,14.32
2017-05-28T02:53:44.439Z,14.26
2017-05-28T02:54:38.497Z,14.26
2017-05-28T02:55:33.511Z,14.24
2017-05-28T02:56:27.842Z,14.21
2017-05-28T02:57:27.600Z,14.16
2017-05-28T02:58:22.677Z,14.14
2017-05-28T02:59:17.712Z,14.13
2017-05-28T03:00:11.710Z,14.09
2017-05-28T03:01:06.790Z,14.08
2017-05-28T03:02:00.796Z,14.06
2017-05-28T03:02:55.834Z,14.04
2017-05-28T03:03:50.093Z,13.99
2017-05-28T03:04:43.926Z,14.00
2017-05-28T03:05:37.984Z,14.01
2017-05-28T03:06:32.990Z,14.00
2017-05-28T03:07:33.056Z,14.13
2017-05-28T03:08:28.111Z,14.16
2017-05-28T03:09:23.098Z,14.22
2017-05-28T03:10:17.162Z,14.23
2017-05-28T03:11:12.227Z,14.44
2017-05-28T03:12:06.256Z,14.49
2017-05-28T03:13:00.300Z,14.44
2017-05-28T03:14:06.304Z,14.42
2017-05-28T03:15:01.375Z,14.43
2017-05-28T03:15:55.411Z,14.48
2017-05-28T03:16:55.475Z,14.54
2017-05-28T03:17:50.499Z,14.56
2017-05-28T03:18:50.507Z,14.54
2017-05-28T03:19:50.517Z,14.55
2017-05-28T03:20:50.684Z,14.57
2017-05-28T03:21:44.648Z,14.64
2017-05-28T03:22:44.682Z,14.59
2017-05-28T03:23:40.022Z,14.63
2017-05-28T03:24:34.759Z,14.76
2017-05-28T03:25:28.775Z,14.77
2017-05-28T03:26:28.839Z,14.84
2017-05-28T03:27:23.876Z,14.78
2017-05-28T03:28:18.907Z,14.73
2017-05-28T03:29:18.978Z,14.75
2017-05-28T03:30:13.964Z,14.78
2017-05-28T03:31:09.002Z,14.84
2017-05-28T03:32:03.091Z,14.86
2017-05-28T03:33:04.082Z,14.92
2017-05-28T03:34:04.130Z,14.95
2017-05-28T03:35:04.181Z,14.96
2017-05-28T03:35:59.216Z,14.98
2017-05-28T03:36:59.269Z,15.01
2017-05-28T03:37:59.384Z,15.09
2017-05-28T03:38:59.324Z,15.06
2017-05-28T03:39:59.372Z,15.05
2017-05-28T03:40:59.380Z,15.09
2017-05-28T03:42:05.460Z,15.10
2017-05-28T03:43:00.489Z,15.16
2017-05-28T03:43:54.537Z,15.14
2017-05-28T03:44:54.597Z,15.22
2017-05-28T03:45:49.580Z,15.18
2017-05-28T03:46:44.633Z,15.07
2017-05-28T03:47:44.695Z,15.16
2017-05-28T03:48:39.681Z,15.19
2017-05-28T03:49:34.790Z,15.35
2017-05-28T03:50:29.800Z,15.40
2017-05-28T03:51:17.859Z,15.42
2017-05-28T03:52:11.909Z,15.43
2017-05-28T03:53:00.953Z,15.46
2017-05-28T03:53:49.058Z,15.36
2017-05-28T03:54:38.001Z,15.36
2017-05-28T03:55:26.094Z,15.37
2017-05-28T03:56:20.095Z,15.45
2017-05-28T03:57:15.182Z,15.52
2017-05-28T03:58:15.227Z,15.57
2017-05-28T03:59:03.280Z,15.53
2017-05-28T03:59:51.283Z,15.52
2017-05-28T04:00:40.359Z,15.61
2017-05-28T04:01:28.379Z,15.56
2017-05-28T04:02:28.427Z,15.73
2017-05-28T04:03:17.494Z,15.71
2017-05-28T04:04:05.487Z,15.60
2017-05-28T04:04:59.602Z,15.61
2017-05-28T04:05:48.620Z,15.64
2017-05-28T04:06:36.701Z,15.71
2017-05-28T04:07:30.716Z,15.78
2017-05-28T04:08:24.773Z,15.84
2017-05-28T04:09:19.009Z,15.86
2017-05-28T04:10:12.824Z,15.96
2017-05-28T04:11:06.947Z,16.06
2017-05-28T04:12:00.905Z,16.18
2017-05-28T04:12:49.981Z,16.33
2017-05-28T04:13:38.043Z,16.41
2017-05-28T04:14:33.069Z,16.45
2017-05-28T04:15:27.131Z,16.53
2017-05-28T04:16:16.121Z,16.54
2017-05-28T04:17:10.199Z,16.51
2017-05-28T04:17:59.242Z,16.59
2017-05-28T04:18:53.305Z,16.60
2017-05-28T04:19:47.369Z,16.51
2017-05-28T04:20:47.377Z,16.50
2017-05-28T04:21:41.416Z,16.64
2017-05-28T04:22:47.439Z,16.74
2017-05-28T04:23:36.875Z,16.75
2017-05-28T04:24:25.822Z,16.78
2017-05-28T04:25:19.809Z,16.72
2017-05-28T04:26:13.612Z,16.75
2017-05-28T04:27:08.697Z,16.82
2017-05-28T04:27:56.706Z,16.85
2017-05-28T04:28:50.777Z,16.82
2017-05-28T04:29:44.811Z,16.86
2017-05-28T04:30:38.876Z,16.75
2017-05-28T04:31:33.923Z,16.70
2017-05-28T04:32:28.945Z,16.78
2017-05-28T04:33:17.992Z,16.74
2017-05-28T04:34:06.999Z,16.77
2017-05-28T04:35:07.086Z,16.74
2017-05-28T04:36:02.121Z,16.80
2017-05-28T04:36:51.206Z,16.81
2017-05-28T04:37:46.265Z,16.86
2017-05-28T04:38:40.201Z,16.74
2017-05-28T04:39:40.302Z,16.82
2017-05-28T04:40:40.309Z,16.92
2017-05-28T04:41:34.463Z,16.87
2017-05-28T04:42:29.408Z,16.90
2017-05-28T04:43:24.502Z,16.92
2017-05-28T04:44:18.517Z,16.88
2017-05-28T04:45:06.580Z,16.89
2017-05-28T04:46:06.603Z,16.82
2017-05-28T04:46:55.684Z,16.84
2017-05-28T04:47:44.693Z,16.83
2017-05-28T04:48:44.707Z,16.88
2017-05-28T04:49:44.788Z,16.86
2017-05-28T04:50:33.783Z,16.80
2017-05-28T04:51:27.867Z,16.78
2017-05-28T04:52:27.967Z,16.81
2017-05-28T04:53:21.961Z,16.79
2017-05-28T04:54:21.989Z,16.76
2017-05-28T04:55:17.016Z,16.81
2017-05-28T04:56:11.079Z,16.74
2017-05-28T04:56:59.110Z,16.69
2017-05-28T04:57:54.225Z,16.64
2017-05-28T04:58:43.190Z,16.58
2017-05-28T04:59:37.301Z,16.67
2017-05-28T05:00:37.297Z,16.66
2017-05-28T05:01:26.392Z,16.69
2017-05-28T05:02:26.377Z,16.76
2017-05-28T05:03:20.471Z,16.81
2017-05-28T05:04:14.470Z,16.74
2017-05-28T05:05:02.492Z,16.69
2017-05-28T05:05:50.529Z,16.76
2017-05-28T05:06:51.583Z,16.74
2017-05-28T05:07:51.675Z,16.69
2017-05-28T05:08:40.986Z,16.74
2017-05-28T05:09:35.716Z,16.67
2017-05-28T05:10:35.776Z,16.76
2017-05-28T05:11:29.827Z,16.82
2017-05-28T05:12:29.885Z,16.77
2017-05-28T05:13:24.918Z,16.85
2017-05-28T05:14:20.179Z,16.84
2017-05-28T05:15:13.997Z,16.84
2017-05-28T05:16:14.019Z,16.88
2017-05-28T05:17:09.094Z,16.88
2017-05-28T05:18:04.109Z,16.94
2017-05-28T05:18:52.196Z,16.90
2017-05-28T05:19:52.221Z,16.97
2017-05-28T05:20:46.245Z,16.89
2017-05-28T05:21:41.273Z,16.83
2017-05-28T05:22:36.343Z,16.87
2017-05-28T05:23:30.387Z,16.93
2017-05-28T05:24:18.447Z,17.01
2017-05-28T05:25:07.502Z,16.95
2017-05-28T05:25:56.515Z,16.99
2017-05-28T05:26:50.545Z,16.92
2017-05-28T05:27:51.613Z,16.86
2017-05-28T05:28:52.642Z,16.86
2017-05-28T05:29:53.695Z,16.88
2017-05-28T05:30:53.800Z,16.82
2017-05-28T05:31:53.770Z,16.97
2017-05-28T05:32:53.796Z,17.09
2017-05-28T05:33:48.863Z,17.12
2017-05-28T05:34:36.889Z,17.01
2017-05-28T05:35:30.976Z,17.02
2017-05-28T05:36:19.016Z,16.95
2017-05-28T05:37:13.036Z,16.88
2017-05-28T05:38:01.089Z,16.94
2017-05-28T05:38:56.105Z,16.86
2017-05-28T05:39:51.212Z,16.82
2017-05-28T05:40:40.211Z,16.82
2017-05-28T05:41:29.286Z,16.76
2017-05-28T05:42:18.303Z,16.82
2017-05-28T05:43:12.355Z,16.82
2017-05-28T05:44:12.412Z,16.80
2017-05-28T05:45:06.443Z,16.80
2017-05-28T05:46:06.499Z,16.79
2017-05-28T05:47:00.604Z,16.80
2017-05-28T05:48:01.623Z,16.72
2017-05-28T05:49:01.648Z,16.62
2017-05-28T05:49:55.675Z,16.52
2017-05-28T05:50:55.868Z,16.48
2017-05-28T05:51:55.763Z,16.40
2017-05-28T05:52:50.960Z,16.42
2017-05-28T05:53:45.805Z,16.33
2017-05-28T05:54:45.882Z,16.21
2017-05-28T05:55:40.903Z,16.14
2017-05-28T05:56:35.978Z,16.18
2017-05-28T05:57:30.993Z,16.19
2017-05-28T05:58:26.039Z,16.13
2017-05-28T05:59:21.085Z,16.17
2017-05-28T06:00:10.123Z,16.14
2017-05-28T06:01:05.175Z,16.20
2017-05-28T06:02:05.221Z,16.16
2017-05-28T06:03:00.274Z,16.20
2017-05-28T06:03:54.369Z,16.19
2017-05-28T06:04:54.370Z,16.31
2017-05-28T06:05:48.404Z,16.20
2017-05-28T06:06:42.449Z,16.24
2017-05-28T06:07:36.502Z,16.34
2017-05-28T06:08:36.585Z,16.35
2017-05-28T06:09:25.576Z,16.50
2017-05-28T06:10:13.593Z,16.64
2017-05-28T06:11:02.661Z,16.42
2017-05-28T06:11:51.711Z,16.20
2017-05-28T06:12:39.793Z,16.31
2017-05-28T06:13:33.805Z,16.40
2017-05-28T06:14:29.171Z,16.45
2017-05-28T06:15:22.895Z,16.67
2017-05-28T06:16:23.213Z,16.48
2017-05-28T06:17:16.989Z,16.48
2017-05-28T06:18:06.025Z,16.63
2017-05-28T06:18:55.102Z,16.74
2017-05-28T06:19:43.369Z,16.85
2017-05-28T06:20:38.197Z,16.87
2017-05-28T06:21:26.253Z,16.79
2017-05-28T06:22:21.283Z,16.72
2017-05-28T06:23:22.322Z,16.58
2017-05-28T06:24:22.570Z,16.59
2017-05-28T06:25:17.409Z,16.64
2017-05-28T06:26:17.389Z,16.38
2017-05-28T06:27:12.486Z,16.37
2017-05-28T06:28:07.514Z,16.50
2017-05-28T06:29:07.538Z,16.52
2017-05-28T06:30:02.610Z,16.57
2017-05-28T06:31:02.676Z,16.55
2017-05-28T06:32:03.687Z,16.52
2017-05-28T06:33:03.734Z,16.54
2017-05-28T06:33:58.798Z,16.50
2017-05-28T06:34:58.808Z,16.53
2017-05-28T06:35:53.858Z,16.54
2017-05-28T06:36:49.083Z,16.57
2017-05-28T06:37:37.961Z,16.56
2017-05-28T06:38:31.976Z,16.48
2017-05-28T06:39:27.020Z,16.43
2017-05-28T06:40:22.363Z,16.49
2017-05-28T06:41:16.128Z,16.52
2017-05-28T06:42:04.198Z,16.54
2017-05-28T06:42:58.220Z,16.49
2017-05-28T06:43:47.316Z,16.48
2017-05-28T06:44:35.305Z,16.55
2017-05-28T06:45:23.382Z,16.54
2017-05-28T06:46:11.398Z,16.58
2017-05-28T06:47:05.499Z,16.56
2017-05-28T06:47:53.509Z,16.58
2017-05-28T06:48:42.500Z,16.64
2017-05-28T06:49:36.600Z,16.62
2017-05-28T06:50:24.616Z,16.52
2017-05-28T06:51:18.694Z,16.49
2017-05-28T06:52:13.900Z,16.43
2017-05-28T06:53:14.787Z,16.46
2017-05-28T06:54:14.801Z,16.55
2017-05-28T06:55:15.829Z,16.65
2017-05-28T06:56:03.921Z,16.69
2017-05-28T06:56:51.919Z,16.72
2017-05-28T06:57:46.986Z,16.82
2017-05-28T06:58:47.022Z,16.85
2017-05-28T06:59:42.060Z,16.90
2017-05-28T07:00:42.096Z,16.96
2017-05-28T07:01:37.159Z,16.96
2017-05-28T07:02:32.193Z,17.04
2017-05-28T07:03:26.210Z,17.16
2017-05-28T07:04:21.522Z,17.18
2017-05-28T07:05:10.301Z,17.30
2017-05-28T07:06:04.402Z,17.35
2017-05-28T07:06:58.424Z,17.42
2017-05-28T07:07:47.491Z,17.42
2017-05-28T07:08:35.679Z,17.34
2017-05-28T07:09:30.550Z,17.50
2017-05-28T07:10:19.595Z,17.52
2017-05-28T07:11:13.608Z,17.51
2017-05-28T07:12:13.674Z,17.73
2017-05-28T07:13:13.708Z,17.98
2017-05-28T07:14:13.730Z,18.12
2017-05-28T07:15:13.794Z,18.01
2017-05-28T07:16:13.835Z,18.04
2017-05-28T07:17:13.905Z,18.00
2017-05-28T07:18:08.911Z,17.91
2017-05-28T07:19:03.959Z,17.83
2017-05-28T07:19:59.004Z,17.86
2017-05-28T07:20:54.054Z,18.04
2017-05-28T07:21:48.084Z,17.99
2017-05-28T07:22:37.126Z,18.07
2017-05-28T07:23:26.196Z,18.16
2017-05-28T07:24:21.555Z,18.28
2017-05-28T07:25:15.612Z,18.35
2017-05-28T07:26:15.299Z,18.38
2017-05-28T07:27:04.397Z,18.40
2017-05-28T07:27:52.421Z,18.52
2017-05-28T07:28:40.801Z,18.49
2017-05-28T07:29:34.535Z,18.94
2017-05-28T07:30:23.619Z,19.22
2017-05-28T07:31:11.622Z,19.50
2017-05-28T07:32:11.701Z,19.56
2017-05-28T07:33:05.794Z,19.44
2017-05-28T07:33:54.863Z,19.42
2017-05-28T07:34:49.904Z,19.33
2017-05-28T07:35:38.005Z,19.22
2017-05-28T07:36:32.067Z,19.48
2017-05-28T07:37:26.170Z,20.19
2017-05-28T07:38:21.214Z,20.88
2017-05-28T07:39:10.262Z,21.25
2017-05-28T07:39:58.755Z,21.34
2017-05-28T07:40:46.487Z,21.21
2017-05-28T07:41:41.487Z,21.52
2017-05-28T07:42:41.519Z,21.78
2017-05-28T07:43:41.897Z,21.56
2017-05-28T07:44:35.677Z,21.21
2017-05-28T07:45:29.736Z,20.84
2017-05-28T07:46:23.807Z,20.56
2017-05-28T07:47:17.878Z,20.95
2017-05-28T07:48:17.990Z,21.06
2017-05-28T07:49:19.025Z,21.06
2017-05-28T07:50:19.072Z,21.47
2017-05-28T07:51:14.114Z,21.18
2017-05-28T07:52:14.196Z,21.28
2017-05-28T07:53:08.307Z,21.55
2017-05-28T07:54:02.387Z,21.56
2017-05-28T07:54:57.475Z,21.96
2017-05-28T07:55:51.515Z,22.09
2017-05-28T07:56:51.652Z,22.06
2017-05-28T07:57:46.787Z,22.02
2017-05-28T07:58:35.728Z,22.36
2017-05-28T07:59:29.818Z,22.31
2017-05-28T08:00:23.919Z,22.51
2017-05-28T08:01:23.981Z,23.04
2017-05-28T08:02:24.069Z,22.62
2017-05-28T08:03:24.166Z,23.38
2017-05-28T08:04:12.215Z,23.90
2017-05-28T08:05:06.313Z,24.40
2017-05-28T08:06:06.483Z,24.27
2017-05-28T08:07:00.500Z,23.92
2017-05-28T08:07:54.499Z,24.28
2017-05-28T08:08:49.655Z,25.24
2017-05-28T08:09:44.687Z,25.37
2017-05-28T08:10:44.770Z,25.65
2017-05-28T08:11:39.050Z,26.50
2017-05-28T08:12:33.933Z,26.93
2017-05-28T08:13:28.012Z,27.57
2017-05-28T08:14:23.157Z,27.05
2017-05-28T08:15:18.377Z,26.41
2017-05-28T08:16:06.199Z,26.31
2017-05-28T08:16:55.307Z,26.69
2017-05-28T08:17:50.428Z,27.11
2017-05-28T08:18:39.502Z,27.37
2017-05-28T08:19:39.584Z,27.61
2017-05-28T08:20:34.645Z,27.31
2017-05-28T08:21:23.709Z,27.04
2017-05-28T08:22:17.796Z,27.64
2017-05-28T08:23:17.954Z,27.52
2017-05-28T08:24:07.022Z,27.36
2017-05-28T08:25:01.227Z,27.81
2017-05-28T08:25:49.336Z,27.90
2017-05-28T08:26:38.400Z,27.72
2017-05-28T08:27:26.294Z,28.02
2017-05-28T08:28:14.407Z,28.12
2017-05-28T08:29:03.563Z,28.11
2017-05-28T08:29:51.583Z,27.87
2017-05-28T08:30:46.057Z,27.21
2017-05-28T08:31:33.718Z,27.00
2017-05-28T08:32:27.782Z,27.08
2017-05-28T08:33:21.867Z,27.48
2017-05-28T08:34:11.085Z,27.52
2017-05-28T08:35:00.160Z,27.11
2017-05-28T08:35:54.120Z,26.86
2017-05-28T08:36:48.357Z,26.75
2017-05-28T08:37:42.313Z,26.43
2017-05-28T08:38:36.404Z,26.24
2017-05-28T08:39:31.484Z,26.15
2017-05-28T08:40:25.556Z,25.75
2017-05-28T08:41:14.619Z,25.25
2017-05-28T08:42:08.734Z,25.26
2017-05-28T08:43:02.779Z,25.30
2017-05-28T08:44:03.875Z,25.68
2017-05-28T08:44:57.946Z,25.53
2017-05-28T08:45:53.202Z,25.33
2017-05-28T08:46:48.179Z,25.23
2017-05-28T08:47:42.188Z,24.66
2017-05-28T08:48:36.272Z,24.40
2017-05-28T08:49:25.392Z,24.33
2017-05-28T08:50:14.422Z,24.61
2017-05-28T08:51:09.517Z,24.51
2017-05-28T08:52:09.627Z,24.70
2017-05-28T08:53:03.697Z,24.59
2017-05-28T08:54:03.719Z,25.64
2017-05-28T08:55:03.847Z,25.95
2017-05-28T08:55:57.907Z,26.60
2017-05-28T08:56:52.999Z,26.79
2017-05-28T08:57:47.131Z,26.83
2017-05-28T08:58:42.466Z,26.80
2017-05-28T08:59:42.238Z,26.85
2017-05-28T09:00:42.301Z,27.53
2017-05-28T09:01:36.568Z,27.72
2017-05-28T09:02:31.465Z,28.05
2017-05-28T09:03:25.606Z,27.90
2017-05-28T09:04:14.702Z,27.97
2017-05-28T09:05:03.777Z,27.82
2017-05-28T09:05:58.811Z,27.80
2017-05-28T09:06:52.882Z,27.53
2017-05-28T09:07:41.976Z,27.43
2017-05-28T09:08:37.161Z,27.44
2017-05-28T09:09:26.237Z,27.32
2017-05-28T09:10:20.397Z,27.27
2017-05-28T09:11:15.267Z,27.39
2017-05-28T09:12:10.406Z,27.74
2017-05-28T09:13:05.485Z,28.45
2017-05-28T09:13:54.641Z,28.71
2017-05-28T09:14:48.603Z,28.63
2017-05-28T09:15:42.736Z,28.60
2017-05-28T09:16:37.790Z,28.60
2017-05-28T09:17:26.896Z,28.72
2017-05-28T09:18:20.978Z,28.87
2017-05-28T09:19:15.407Z,28.78
2017-05-28T09:20:15.275Z,28.66
2017-05-28T09:21:16.439Z,28.44
2017-05-28T09:22:16.285Z,28.65
2017-05-28T09:23:10.383Z,28.94
2017-05-28T09:24:04.577Z,29.06
2017-05-28T09:24:59.568Z,28.62
2017-05-28T09:25:53.673Z,28.28
2017-05-28T09:26:53.698Z,27.70
2017-05-28T09:27:47.789Z,27.47
2017-05-28T09:28:43.185Z,27.57
2017-05-28T09:29:43.161Z,27.70
2017-05-28T09:30:37.238Z,27.67
2017-05-28T09:31:26.330Z,27.88
2017-05-28T09:32:15.429Z,28.08
2017-05-28T09:33:10.509Z,28.01
2017-05-28T09:34:05.626Z,27.84
2017-05-28T09:34:53.696Z,27.72
2017-05-28T09:35:48.186Z,27.41
2017-05-28T09:36:41.833Z,27.63
2017-05-28T09:37:35.917Z,28.00
2017-05-28T09:38:29.986Z,28.21
2017-05-28T09:39:19.109Z,28.14
2017-05-28T09:40:07.206Z,28.22
2017-05-28T09:40:56.278Z,27.90
2017-05-28T09:41:51.342Z,27.68
2017-05-28T09:42:46.436Z,27.59
2017-05-28T09:43:46.583Z,27.88
2017-05-28T09:44:40.542Z,28.15
2017-05-28T09:45:29.648Z,28.48
2017-05-28T09:46:18.778Z,28.64
2017-05-28T09:47:13.784Z,28.61
2017-05-28T09:48:08.903Z,28.38
2017-05-28T09:49:02.992Z,28.16
2017-05-28T09:49:51.074Z,27.89
2017-05-28T09:50:45.196Z,27.66
2017-05-28T09:51:45.261Z,27.17
2017-05-28T09:52:51.320Z,26.50
2017-05-28T09:53:40.379Z,26.03
2017-05-28T09:54:41.533Z,25.63
2017-05-28T09:55:30.593Z,25.26
2017-05-28T09:56:18.750Z,24.82
2017-05-28T09:57:07.756Z,24.66
2017-05-28T09:58:07.616Z,24.57
2017-05-28T09:58:55.916Z,24.33
2017-05-28T09:59:44.897Z,24.22
2017-05-28T10:00:33.969Z,23.83
2017-05-28T10:01:33.932Z,23.65
2017-05-28T10:02:34.161Z,23.36
2017-05-28T10:03:28.105Z,22.82
2017-05-28T10:04:23.190Z,22.83
2017-05-28T10:05:23.436Z,22.44
2017-05-28T10:06:23.477Z,22.23
2017-05-28T10:07:18.392Z,21.52
2017-05-28T10:08:07.506Z,21.22
2017-05-28T10:09:07.525Z,20.84
2017-05-28T10:10:02.623Z,20.54
2017-05-28T10:10:56.674Z,19.99
2017-05-28T10:11:51.703Z,19.95
2017-05-28T10:12:46.778Z,20.15
2017-05-28T10:13:36.248Z,20.58
2017-05-28T10:14:29.991Z,20.84
2017-05-28T10:15:18.062Z,21.09
2017-05-28T10:16:12.338Z,21.32
2017-05-28T10:17:01.245Z,21.39
2017-05-28T10:17:50.303Z,21.68
2017-05-28T10:18:44.939Z,21.74
2017-05-28T10:19:33.480Z,21.97
2017-05-28T10:20:22.500Z,23.08
2017-05-28T10:21:16.605Z,23.39
2017-05-28T10:22:11.849Z,23.90
2017-05-28T10:23:06.749Z,25.10
2017-05-28T10:24:07.267Z,25.14
2017-05-28T10:25:01.062Z,25.47
2017-05-28T10:25:49.969Z,26.26
2017-05-28T10:26:50.203Z,27.16
2017-05-28T10:27:50.126Z,27.83
2017-05-28T10:28:44.532Z,27.87
2017-05-28T10:29:38.596Z,27.76
2017-05-28T10:30:32.375Z,27.98
2017-05-28T10:31:20.477Z,28.31
2017-05-28T10:32:14.554Z,28.62
2017-05-28T10:33:14.605Z,28.19
2017-05-28T10:34:14.845Z,27.67
2017-05-28T10:35:04.009Z,27.42
2017-05-28T10:35:58.046Z,27.18
2017-05-28T10:36:59.117Z,26.72
2017-05-28T10:37:53.248Z,26.41
2017-05-28T10:38:42.311Z,26.30
2017-05-28T10:39:31.390Z,26.36
2017-05-28T10:40:26.011Z,26.43
2017-05-28T10:41:14.543Z,26.47
2017-05-28T10:42:09.547Z,26.82
2017-05-28T10:43:09.494Z,26.91
2017-05-28T10:44:09.585Z,26.23
2017-05-28T10:45:10.689Z,25.92
2017-05-28T10:46:10.770Z,25.02
2017-05-28T10:47:10.795Z,24.65
2017-05-28T10:47:59.915Z,24.61
2017-05-28T10:48:54.009Z,24.45
2017-05-28T10:49:48.059Z,24.36
2017-05-28T10:50:49.099Z,24.30
2017-05-28T10:51:44.234Z,24.32
2017-05-28T10:52:38.276Z,24.34
2017-05-28T10:53:32.370Z,24.54
2017-05-28T10:54:20.471Z,25.00
2017-05-28T10:55:14.487Z,25.29
2017-05-28T10:56:14.582Z,25.36
2017-05-28T10:57:08.941Z,25.36
2017-05-28T10:58:08.775Z,25.35
2017-05-28T10:59:08.852Z,25.16
2017-05-28T11:00:02.917Z,25.17
2017-05-28T11:00:56.995Z,25.10
2017-05-28T11:01:51.069Z,25.20
2017-05-28T11:02:51.134Z,25.23
2017-05-28T11:03:51.236Z,25.26
2017-05-28T11:04:46.300Z,25.10
2017-05-28T11:05:40.404Z,24.98
2017-05-28T11:06:40.456Z,24.89
2017-05-28T11:07:40.538Z,24.97
2017-05-28T11:08:40.622Z,24.84
2017-05-28T11:09:35.675Z,24.54
2017-05-28T11:10:30.784Z,24.38
2017-05-28T11:11:31.957Z,24.42
2017-05-28T11:12:26.876Z,24.54
2017-05-28T11:13:14.996Z,24.61
2017-05-28T11:14:03.141Z,24.76
2017-05-28T11:14:57.382Z,24.78
2017-05-28T11:15:57.217Z,24.68
2017-05-28T11:16:57.358Z,24.48
2017-05-28T11:17:52.410Z,24.53
2017-05-28T11:18:47.790Z,24.51
2017-05-28T11:19:42.504Z,24.52
2017-05-28T11:20:37.603Z,24.69
2017-05-28T11:21:31.766Z,24.60
2017-05-28T11:22:32.749Z,24.69
2017-05-28T11:23:32.828Z,25.07
2017-05-28T11:24:27.894Z,25.21
2017-05-28T11:25:23.017Z,25.30
2017-05-28T11:26:17.138Z,25.63
2017-05-28T11:27:06.122Z,26.16
2017-05-28T11:28:01.261Z,26.82
2017-05-28T11:28:55.280Z,27.24
2017-05-28T11:29:49.374Z,27.86
2017-05-28T11:30:43.480Z,28.52
2017-05-28T11:31:37.754Z,29.37
2017-05-28T11:32:32.798Z,29.74
2017-05-28T11:33:32.657Z,28.92
2017-05-28T11:34:20.760Z,28.74
2017-05-28T11:35:15.813Z,28.77
2017-05-28T11:36:09.917Z,28.50
2017-05-28T11:37:05.000Z,28.12
2017-05-28T11:38:00.113Z,28.08
2017-05-28T11:39:00.114Z,27.94
2017-05-28T11:40:00.211Z,27.85
2017-05-28T11:40:54.303Z,27.56
2017-05-28T11:41:42.437Z,27.66
2017-05-28T11:42:36.474Z,28.41
2017-05-28T11:43:30.542Z,28.95
2017-05-28T11:44:30.615Z,29.37
2017-05-28T11:45:30.677Z,29.66